createdAt,value
2022-12-23T00:00:43.920Z,0.69
2022-12-23T00:03:10.455Z,0.73
2022-12-23T00:05:38.131Z,0.69
2022-12-23T00:08:04.764Z,0.74
2022-12-23T00:10:31.174Z,0.64
2022-12-23T00:12:57.526Z,0.75
2022-12-23T00:15:23.857Z,0.76
2022-12-23T00:17:50.213Z,0.74
2022-12-23T00:20:16.551Z,0.71
2022-12-23T00:22:42.940Z,0.65
2022-12-23T00:25:09.295Z,0.58
2022-12-23T00:27:37.675Z,0.66
2022-12-23T00:30:04.303Z,0.73
2022-12-23T00:32:30.692Z,0.62
2022-12-23T00:34:57.077Z,0.62
2022-12-23T00:37:23.423Z,0.68
2022-12-23T00:39:54.800Z,0.76
2022-12-23T00:42:21.515Z,0.81
2022-12-23T00:44:47.869Z,0.74
2022-12-23T00:47:14.275Z,0.55
2022-12-23T00:49:40.677Z,0.61
2022-12-23T00:52:07.063Z,0.64
2022-12-23T00:54:33.411Z,0.52
2022-12-23T00:56:59.758Z,0.64
2022-12-23T00:59:26.120Z,0.60
2022-12-23T01:01:52.578Z,0.62
2022-12-23T01:04:19.065Z,0.78
2022-12-23T01:06:45.401Z,0.65
2022-12-23T01:09:11.726Z,0.65
2022-12-23T01:11:38.114Z,0.52
2022-12-23T01:14:04.500Z,0.64
2022-12-23T01:16:30.896Z,0.56
2022-12-23T01:18:57.247Z,0.53
2022-12-23T01:21:23.596Z,0.44
2022-12-23T01:23:50.004Z,0.53
2022-12-23T01:26:16.430Z,0.42
2022-12-23T01:28:42.773Z,0.64
2022-12-23T01:31:09.149Z,0.55
2022-12-23T01:33:35.560Z,0.49
2022-12-23T01:36:01.958Z,0.46
2022-12-23T01:38:28.299Z,0.65
2022-12-23T01:40:54.632Z,0.54
2022-12-23T01:43:20.987Z,0.49
2022-12-23T01:45:47.424Z,0.47
2022-12-23T01:48:13.845Z,0.50
2022-12-23T01:50:40.232Z,0.53
2022-12-23T01:53:08.092Z,0.48
2022-12-23T01:55:34.931Z,0.52
2022-12-23T01:58:01.276Z,0.54
2022-12-23T02:00:27.657Z,0.50
2022-12-23T02:02:54.165Z,0.44
2022-12-23T02:05:20.569Z,0.58
2022-12-23T02:07:46.927Z,0.55
2022-12-23T02:10:13.334Z,0.46
2022-12-23T02:12:39.676Z,0.46
2022-12-23T02:15:06.056Z,0.42
2022-12-23T02:17:32.448Z,0.53
2022-12-23T02:19:58.859Z,0.45
2022-12-23T02:22:25.275Z,0.39
2022-12-23T02:24:51.662Z,0.50
2022-12-23T02:27:18.074Z,0.33
2022-12-23T02:29:44.453Z,0.39
2022-12-23T02:32:10.831Z,0.31
2022-12-23T02:34:37.176Z,0.41
2022-12-23T02:37:03.510Z,0.49
2022-12-23T02:39:29.908Z,0.44
2022-12-23T02:41:56.324Z,0.40
2022-12-23T02:44:22.658Z,0.48
2022-12-23T02:46:49.014Z,0.42
2022-12-23T02:49:15.364Z,0.31
2022-12-23T02:51:41.706Z,0.32
2022-12-23T02:54:08.049Z,0.29
2022-12-23T02:56:34.434Z,0.37
2022-12-23T02:59:00.770Z,0.33
2022-12-23T03:01:27.276Z,0.31
2022-12-23T03:03:53.810Z,0.38
2022-12-23T03:06:20.255Z,0.30
2022-12-23T03:08:46.590Z,0.37
2022-12-23T03:11:12.971Z,0.33
2022-12-23T03:13:39.345Z,0.33
2022-12-23T03:16:05.715Z,0.43
2022-12-23T03:18:32.110Z,0.37
2022-12-23T03:20:58.472Z,0.44
2022-12-23T03:23:24.830Z,0.30
2022-12-23T03:25:51.214Z,0.40
2022-12-23T03:28:17.623Z,0.38
2022-12-23T03:30:44.017Z,0.41
2022-12-23T03:33:10.387Z,0.44
2022-12-23T03:35:36.762Z,0.36
2022-12-23T03:38:03.132Z,0.44
2022-12-23T03:40:29.484Z,0.49
2022-12-23T03:42:55.878Z,0.43
2022-12-23T03:45:38.762Z,0.48
2022-12-23T03:48:05.971Z,0.45
2022-12-23T03:50:32.300Z,0.49
2022-12-23T03:52:58.659Z,0.38
2022-12-23T03:55:25.026Z,0.47
2022-12-23T03:57:51.354Z,0.49
2022-12-23T04:00:17.733Z,0.41
2022-12-23T04:02:44.287Z,0.47
2022-12-23T04:05:10.728Z,0.44
2022-12-23T04:07:37.102Z,0.48
2022-12-23T04:10:03.522Z,0.55
2022-12-23T04:12:29.907Z,0.43
2022-12-23T04:14:56.257Z,0.54
2022-12-23T04:17:22.586Z,0.50
2022-12-23T04:19:48.926Z,0.44
2022-12-23T04:22:15.265Z,0.30
2022-12-23T04:24:41.606Z,0.30
2022-12-23T04:27:07.934Z,0.30
2022-12-23T04:29:34.267Z,0.43
2022-12-23T04:32:00.608Z,0.36
2022-12-23T04:34:26.997Z,0.34
2022-12-23T04:36:53.356Z,0.33
2022-12-23T04:39:19.775Z,0.34
2022-12-23T04:41:46.178Z,0.30
2022-12-23T04:44:12.541Z,0.29
2022-12-23T04:46:38.953Z,0.32
2022-12-23T04:49:05.321Z,0.28
2022-12-23T04:51:31.701Z,0.23
2022-12-23T04:53:58.093Z,0.32
2022-12-23T04:56:24.492Z,0.28
2022-12-23T04:58:50.875Z,0.40
2022-12-23T05:01:17.293Z,0.29
2022-12-23T05:03:43.674Z,0.31
2022-12-23T05:06:10.043Z,0.30
2022-12-23T05:08:36.426Z,0.38
2022-12-23T05:11:02.808Z,0.38
2022-12-23T05:13:29.151Z,0.43
2022-12-23T05:15:55.554Z,0.39
2022-12-23T05:18:21.917Z,0.40
2022-12-23T05:20:48.280Z,0.36
2022-12-23T05:23:14.663Z,0.50
2022-12-23T05:25:41.001Z,0.34
2022-12-23T05:28:07.348Z,0.37
2022-12-23T05:30:33.729Z,0.32
2022-12-23T05:33:00.180Z,0.32
2022-12-23T05:35:26.589Z,0.32
2022-12-23T05:37:52.947Z,0.31
2022-12-23T05:40:24.097Z,0.35
2022-12-23T05:42:56.822Z,0.32
2022-12-23T05:45:23.162Z,0.56
2022-12-23T05:47:49.549Z,0.98
2022-12-23T05:50:15.939Z,1.18
2022-12-23T05:52:42.351Z,1.17
2022-12-23T05:55:08.728Z,1.31
2022-12-23T05:57:35.086Z,1.43
2022-12-23T06:00:02.565Z,1.36
2022-12-23T06:02:29.069Z,1.46
2022-12-23T06:04:55.594Z,1.50
